sensor_id;sensor_type;location;lat;lon;timestamp;temperature;humidity
12948;DHT22;6539;49.476;8.484;2023-04-24T00:02:01;13.50;99.90
12948;DHT22;6539;49.476;8.484;2023-04-24T00:04:31;13.50;99.90
12948;DHT22;6539;49.476;8.484;2023-04-24T00:06:57;13.30;99.90
12948;DHT22;6539;49.476;8.484;2023-04-24T00:09:25;13.50;99.90
12948;DHT22;6539;49.476;8.484;2023-04-24T00:11:52;13.70;99.90
12948;DHT22;6539;49.476;8.484;2023-04-24T00:14:21;13.50;99.90
12948;DHT22;6539;49.476;8.484;2023-04-24T00:16:47;13.50;99.90
12948;DHT22;6539;49.476;8.484;2023-04-24T00:19:13;13.50;99.90
12948;DHT22;6539;49.476;8.484;2023-04-24T00:21:39;13.40;99.90
12948;DHT22;6539;49.476;8.484;2023-04-24T00:24:05;13.50;99.90
12948;DHT22;6539;49.476;8.484;2023-04-24T00:26:34;13.40;99.90
12948;DHT22;6539;49.476;8.484;2023-04-24T00:29:02;13.70;99.90
12948;DHT22;6539;49.476;8.484;2023-04-24T00:31:28;13.50;99.90
12948;DHT22;6539;49.476;8.484;2023-04-24T00:33:59;13.40;99.90
12948;DHT22;6539;49.476;8.484;2023-04-24T00:36:25;13.60;99.90
12948;DHT22;6539;49.476;8.484;2023-04-24T00:38:50;13.50;99.90
12948;DHT22;6539;49.476;8.484;2023-04-24T00:41:19;13.60;99.90
12948;DHT22;6539;49.476;8.484;2023-04-24T00:43:45;13.50;99.90
12948;DHT22;6539;49.476;8.484;2023-04-24T00:46:11;13.50;99.90
12948;DHT22;6539;49.476;8.484;2023-04-24T00:48:42;13.50;99.90
12948;DHT22;6539;49.476;8.484;2023-04-24T00:51:08;13.70;99.90
12948;DHT22;6539;49.476;8.484;2023-04-24T00:53:34;13.50;99.90
12948;DHT22;6539;49.476;8.484;2023-04-24T00:56:05;13.40;99.90
12948;DHT22;6539;49.476;8.484;2023-04-24T00:58:31;13.60;99.90
12948;DHT22;6539;49.476;8.484;2023-04-24T01:00:57;13.50;99.90
12948;DHT22;6539;49.476;8.484;2023-04-24T01:03:30;13.40;99.90
12948;DHT22;6539;49.476;8.484;2023-04-24T01:05:57;13.30;99.90
12948;DHT22;6539;49.476;8.484;2023-04-24T01:08:24;13.50;99.90
12948;DHT22;6539;49.476;8.484;2023-04-24T01:10:57;13.30;99.90
12948;DHT22;6539;49.476;8.484;2023-04-24T01:13:23;13.40;99.90
12948;DHT22;6539;49.476;8.484;2023-04-24T01:15:49;13.30;99.90
12948;DHT22;6539;49.476;8.484;2023-04-24T01:18:17;13.40;99.90
12948;DHT22;6539;49.476;8.484;2023-04-24T01:20:45;13.50;99.90
12948;DHT22;6539;49.476;8.484;2023-04-24T01:23:12;13.20;99.90
12948;DHT22;6539;49.476;8.484;2023-04-24T01:25:40;13.30;99.90
12948;DHT22;6539;49.476;8.484;2023-04-24T01:28:09;13.30;99.90
12948;DHT22;6539;49.476;8.484;2023-04-24T01:30:35;13.30;99.90
12948;DHT22;6539;49.476;8.484;2023-04-24T01:33:01;13.30;99.90
12948;DHT22;6539;49.476;8.484;2023-04-24T01:35:28;12.80;99.90
12948;DHT22;6539;49.476;8.484;2023-04-24T01:37:54;13.20;99.90
12948;DHT22;6539;49.476;8.484;2023-04-24T01:40:20;13.50;99.90
12948;DHT22;6539;49.476;8.484;2023-04-24T01:42:50;13.30;99.90
12948;DHT22;6539;49.476;8.484;2023-04-24T01:45:17;13.40;99.90
12948;DHT22;6539;49.476;8.484;2023-04-24T01:47:44;13.20;99.90
12948;DHT22;6539;49.476;8.484;2023-04-24T01:50:12;13.20;99.90
12948;DHT22;6539;49.476;8.484;2023-04-24T01:52:38;13.50;99.90
12948;DHT22;6539;49.476;8.484;2023-04-24T01:55:04;13.10;99.90
12948;DHT22;6539;49.476;8.484;2023-04-24T01:57:35;13.20;99.90
12948;DHT22;6539;49.476;8.484;2023-04-24T02:00:04;12.90;99.90
12948;DHT22;6539;49.476;8.484;2023-04-24T02:02:35;13.10;99.90
12948;DHT22;6539;49.476;8.484;2023-04-24T02:05:06;13.20;99.90
12948;DHT22;6539;49.476;8.484;2023-04-24T02:07:35;13.20;99.90
12948;DHT22;6539;49.476;8.484;2023-04-24T02:10:06;13.20;99.90
12948;DHT22;6539;49.476;8.484;2023-04-24T02:12:37;13.30;99.90
12948;DHT22;6539;49.476;8.484;2023-04-24T02:15:05;13.20;99.90
12948;DHT22;6539;49.476;8.484;2023-04-24T02:17:31;13.30;99.90
12948;DHT22;6539;49.476;8.484;2023-04-24T02:19:57;13.30;99.90
12948;DHT22;6539;49.476;8.484;2023-04-24T02:22:25;13.30;99.90
12948;DHT22;6539;49.476;8.484;2023-04-24T02:24:54;13.30;99.90
12948;DHT22;6539;49.476;8.484;2023-04-24T02:27:22;13.30;99.90
12948;DHT22;6539;49.476;8.484;2023-04-24T02:29:48;13.30;99.90
12948;DHT22;6539;49.476;8.484;2023-04-24T02:32:16;13.30;99.90
12948;DHT22;6539;49.476;8.484;2023-04-24T02:34:42;13.20;99.90
12948;DHT22;6539;49.476;8.484;2023-04-24T02:37:10;13.20;99.90
12948;DHT22;6539;49.476;8.484;2023-04-24T02:39:41;13.20;99.90
12948;DHT22;6539;49.476;8.484;2023-04-24T02:42:09;13.20;99.90
12948;DHT22;6539;49.476;8.484;2023-04-24T02:44:37;13.20;99.90
12948;DHT22;6539;49.476;8.484;2023-04-24T02:47:06;13.20;99.90
12948;DHT22;6539;49.476;8.484;2023-04-24T02:49:37;13.10;99.90
12948;DHT22;6539;49.476;8.484;2023-04-24T02:52:03;13.30;99.90
12948;DHT22;6539;49.476;8.484;2023-04-24T02:54:31;13.20;99.90
12948;DHT22;6539;49.476;8.484;2023-04-24T02:56:57;13.30;99.90
12948;DHT22;6539;49.476;8.484;2023-04-24T02:59:22;13.10;99.90
12948;DHT22;6539;49.476;8.484;2023-04-24T03:01:52;13.10;99.90
12948;DHT22;6539;49.476;8.484;2023-04-24T03:04:20;13.00;99.90
12948;DHT22;6539;49.476;8.484;2023-04-24T03:06:47;13.10;99.90
12948;DHT22;6539;49.476;8.484;2023-04-24T03:09:13;13.10;99.90
12948;DHT22;6539;49.476;8.484;2023-04-24T03:11:39;13.20;99.90
12948;DHT22;6539;49.476;8.484;2023-04-24T03:14:06;13.10;99.90
12948;DHT22;6539;49.476;8.484;2023-04-24T03:16:34;13.10;99.90
12948;DHT22;6539;49.476;8.484;2023-04-24T03:18:59;13.10;99.90
12948;DHT22;6539;49.476;8.484;2023-04-24T03:21:30;13.20;99.90
12948;DHT22;6539;49.476;8.484;2023-04-24T03:23:58;13.30;99.90
12948;DHT22;6539;49.476;8.484;2023-04-24T03:26:24;13.20;99.90
12948;DHT22;6539;49.476;8.484;2023-04-24T03:28:50;13.20;99.90
12948;DHT22;6539;49.476;8.484;2023-04-24T03:31:20;13.40;99.90
12948;DHT22;6539;49.476;8.484;2023-04-24T03:33:46;13.20;99.90
12948;DHT22;6539;49.476;8.484;2023-04-24T03:36:12;12.90;99.90
12948;DHT22;6539;49.476;8.484;2023-04-24T03:38:40;13.10;99.90
12948;DHT22;6539;49.476;8.484;2023-04-24T03:41:08;13.10;99.90
12948;DHT22;6539;49.476;8.484;2023-04-24T03:43:34;13.20;99.90
12948;DHT22;6539;49.476;8.484;2023-04-24T03:46:02;13.20;99.90
12948;DHT22;6539;49.476;8.484;2023-04-24T03:48:30;13.30;99.90
12948;DHT22;6539;49.476;8.484;2023-04-24T03:50:56;13.10;99.90
12948;DHT22;6539;49.476;8.484;2023-04-24T03:53:21;13.30;99.90
12948;DHT22;6539;49.476;8.484;2023-04-24T03:55:47;13.30;99.90
12948;DHT22;6539;49.476;8.484;2023-04-24T03:58:13;13.30;99.90
12948;DHT22;6539;49.476;8.484;2023-04-24T04:00:40;13.10;99.90
12948;DHT22;6539;49.476;8.484;2023-04-24T04:03:09;13.10;99.90
12948;DHT22;6539;49.476;8.484;2023-04-24T04:05:39;12.80;99.90
12948;DHT22;6539;49.476;8.484;2023-04-24T04:08:05;12.80;99.90
12948;DHT22;6539;49.476;8.484;2023-04-24T04:10:31;13.10;99.90
12948;DHT22;6539;49.476;8.484;2023-04-24T04:12:59;12.70;99.90
12948;DHT22;6539;49.476;8.484;2023-04-24T04:15:28;12.90;99.90
12948;DHT22;6539;49.476;8.484;2023-04-24T04:17:55;12.90;99.90
12948;DHT22;6539;49.476;8.484;2023-04-24T04:20:21;12.90;99.90
12948;DHT22;6539;49.476;8.484;2023-04-24T04:22:47;12.70;99.90
12948;DHT22;6539;49.476;8.484;2023-04-24T04:25:20;12.70;99.90
12948;DHT22;6539;49.476;8.484;2023-04-24T04:27:46;12.80;99.90
12948;DHT22;6539;49.476;8.484;2023-04-24T04:30:16;12.70;99.90
12948;DHT22;6539;49.476;8.484;2023-04-24T04:32:42;12.70;99.90
12948;DHT22;6539;49.476;8.484;2023-04-24T04:35:10;12.70;99.90
12948;DHT22;6539;49.476;8.484;2023-04-24T04:37:36;12.70;99.90
12948;DHT22;6539;49.476;8.484;2023-04-24T04:40:02;12.60;99.90
12948;DHT22;6539;49.476;8.484;2023-04-24T04:42:32;12.60;99.90
12948;DHT22;6539;49.476;8.484;2023-04-24T04:45:06;12.50;99.90
12948;DHT22;6539;49.476;8.484;2023-04-24T04:47:34;12.20;99.90
12948;DHT22;6539;49.476;8.484;2023-04-24T04:50:03;12.40;99.90
12948;DHT22;6539;49.476;8.484;2023-04-24T04:52:29;12.40;99.90
12948;DHT22;6539;49.476;8.484;2023-04-24T04:54:55;12.30;99.90
12948;DHT22;6539;49.476;8.484;2023-04-24T04:57:21;12.40;99.90
12948;DHT22;6539;49.476;8.484;2023-04-24T04:59:47;12.30;99.90
12948;DHT22;6539;49.476;8.484;2023-04-24T05:02:13;12.20;99.90
12948;DHT22;6539;49.476;8.484;2023-04-24T05:04:41;12.20;99.90
12948;DHT22;6539;49.476;8.484;2023-04-24T05:07:11;12.30;99.90
12948;DHT22;6539;49.476;8.484;2023-04-24T05:09:41;12.30;99.90
12948;DHT22;6539;49.476;8.484;2023-04-24T05:12:10;12.30;99.90
12948;DHT22;6539;49.476;8.484;2023-04-24T05:14:37;12.30;99.90
12948;DHT22;6539;49.476;8.484;2023-04-24T05:17:03;12.30;99.90
12948;DHT22;6539;49.476;8.484;2023-04-24T05:19:29;12.30;99.90
12948;DHT22;6539;49.476;8.484;2023-04-24T05:22:00;12.40;99.90
12948;DHT22;6539;49.476;8.484;2023-04-24T05:24:30;12.30;99.90
12948;DHT22;6539;49.476;8.484;2023-04-24T05:26:59;12.50;99.90
12948;DHT22;6539;49.476;8.484;2023-04-24T05:29:25;12.80;99.90
12948;DHT22;6539;49.476;8.484;2023-04-24T05:31:53;13.60;99.90
12948;DHT22;6539;49.476;8.484;2023-04-24T05:34:22;13.90;99.90
12948;DHT22;6539;49.476;8.484;2023-04-24T05:36:50;14.20;99.90
12948;DHT22;6539;49.476;8.484;2023-04-24T05:39:21;13.90;99.90
12948;DHT22;6539;49.476;8.484;2023-04-24T05:41:47;14.50;99.90
12948;DHT22;6539;49.476;8.484;2023-04-24T05:44:13;14.40;99.90
12948;DHT22;6539;49.476;8.484;2023-04-24T05:46:41;14.50;99.90
12948;DHT22;6539;49.476;8.484;2023-04-24T05:49:07;14.50;99.90
12948;DHT22;6539;49.476;8.484;2023-04-24T05:51:36;14.60;99.90
12948;DHT22;6539;49.476;8.484;2023-04-24T05:54:04;15.20;99.90
12948;DHT22;6539;49.476;8.484;2023-04-24T06:01:32;14.40;99.90
12948;DHT22;6539;49.476;8.484;2023-04-24T06:03:58;14.00;99.90
12948;DHT22;6539;49.476;8.484;2023-04-24T06:06:27;14.20;99.90
12948;DHT22;6539;49.476;8.484;2023-04-24T06:08:52;14.00;99.90
12948;DHT22;6539;49.476;8.484;2023-04-24T06:11:18;13.90;99.90
12948;DHT22;6539;49.476;8.484;2023-04-24T06:13:44;13.60;99.90
12948;DHT22;6539;49.476;8.484;2023-04-24T06:16:10;13.30;99.90
12948;DHT22;6539;49.476;8.484;2023-04-24T06:18:36;13.40;99.90
12948;DHT22;6539;49.476;8.484;2023-04-24T06:21:02;13.50;99.90
12948;DHT22;6539;49.476;8.484;2023-04-24T06:23:29;13.40;99.90
12948;DHT22;6539;49.476;8.484;2023-04-24T06:25:58;13.50;99.90
12948;DHT22;6539;49.476;8.484;2023-04-24T06:28:24;13.60;99.90
12948;DHT22;6539;49.476;8.484;2023-04-24T06:30:50;13.10;99.90
12948;DHT22;6539;49.476;8.484;2023-04-24T06:33:16;13.50;99.90
12948;DHT22;6539;49.476;8.484;2023-04-24T06:35:47;12.90;99.90
12948;DHT22;6539;49.476;8.484;2023-04-24T06:40:43;13.10;99.90
12948;DHT22;6539;49.476;8.484;2023-04-24T06:43:11;12.90;99.90
12948;DHT22;6539;49.476;8.484;2023-04-24T06:45:38;12.80;99.90
12948;DHT22;6539;49.476;8.484;2023-04-24T06:48:05;12.70;99.90
12948;DHT22;6539;49.476;8.484;2023-04-24T06:50:32;12.80;99.90
12948;DHT22;6539;49.476;8.484;2023-04-24T06:52:58;12.70;99.90
12948;DHT22;6539;49.476;8.484;2023-04-24T06:55:28;12.60;99.90
12948;DHT22;6539;49.476;8.484;2023-04-24T06:57:54;12.60;99.90
12948;DHT22;6539;49.476;8.484;2023-04-24T07:00:20;12.50;99.90
12948;DHT22;6539;49.476;8.484;2023-04-24T07:02:49;12.50;99.90
12948;DHT22;6539;49.476;8.484;2023-04-24T07:05:15;12.40;99.90
12948;DHT22;6539;49.476;8.484;2023-04-24T07:07:41;12.30;99.90
12948;DHT22;6539;49.476;8.484;2023-04-24T07:10:07;12.50;99.90
12948;DHT22;6539;49.476;8.484;2023-04-24T07:12:36;12.60;99.90
12948;DHT22;6539;49.476;8.484;2023-04-24T07:15:05;13.00;99.90
12948;DHT22;6539;49.476;8.484;2023-04-24T07:17:36;14.10;99.90
12948;DHT22;6539;49.476;8.484;2023-04-24T07:20:04;14.40;99.90
12948;DHT22;6539;49.476;8.484;2023-04-24T07:22:32;14.60;99.90
12948;DHT22;6539;49.476;8.484;2023-04-24T07:25:03;15.10;99.90
12948;DHT22;6539;49.476;8.484;2023-04-24T07:27:29;15.50;99.90
12948;DHT22;6539;49.476;8.484;2023-04-24T07:29:54;15.50;99.90
12948;DHT22;6539;49.476;8.484;2023-04-24T07:32:20;15.40;99.90
12948;DHT22;6539;49.476;8.484;2023-04-24T07:34:48;14.80;99.90
12948;DHT22;6539;49.476;8.484;2023-04-24T07:37:16;14.30;99.90
12948;DHT22;6539;49.476;8.484;2023-04-24T07:39:45;14.10;99.90
12948;DHT22;6539;49.476;8.484;2023-04-24T07:42:13;13.90;99.90
12948;DHT22;6539;49.476;8.484;2023-04-24T07:44:41;14.30;99.90
12948;DHT22;6539;49.476;8.484;2023-04-24T07:47:10;14.90;99.90
12948;DHT22;6539;49.476;8.484;2023-04-24T07:49:38;15.00;99.90
12948;DHT22;6539;49.476;8.484;2023-04-24T07:52:04;15.60;99.90
12948;DHT22;6539;49.476;8.484;2023-04-24T07:54:31;16.00;99.90
12948;DHT22;6539;49.476;8.484;2023-04-24T07:56:57;16.80;99.90
12948;DHT22;6539;49.476;8.484;2023-04-24T07:59:23;16.70;99.90
12948;DHT22;6539;49.476;8.484;2023-04-24T08:04:18;16.10;99.90
12948;DHT22;6539;49.476;8.484;2023-04-24T08:06:43;16.40;99.90
12948;DHT22;6539;49.476;8.484;2023-04-24T08:09:10;16.80;99.90
12948;DHT22;6539;49.476;8.484;2023-04-24T08:11:36;17.20;99.90
12948;DHT22;6539;49.476;8.484;2023-04-24T08:14:01;17.10;99.90
12948;DHT22;6539;49.476;8.484;2023-04-24T08:16:27;17.20;99.90
12948;DHT22;6539;49.476;8.484;2023-04-24T08:18:53;17.50;99.90
12948;DHT22;6539;49.476;8.484;2023-04-24T08:21:22;17.60;99.90
12948;DHT22;6539;49.476;8.484;2023-04-24T08:23:51;17.40;99.90
12948;DHT22;6539;49.476;8.484;2023-04-24T08:26:17;16.90;99.90
12948;DHT22;6539;49.476;8.484;2023-04-24T08:28:46;16.30;99.90
12948;DHT22;6539;49.476;8.484;2023-04-24T08:31:13;16.10;99.90
12948;DHT22;6539;49.476;8.484;2023-04-24T08:33:39;16.00;99.90
12948;DHT22;6539;49.476;8.484;2023-04-24T08:36:07;16.00;99.90
12948;DHT22;6539;49.476;8.484;2023-04-24T08:38:35;15.80;99.90
12948;DHT22;6539;49.476;8.484;2023-04-24T08:41:07;15.90;99.90
12948;DHT22;6539;49.476;8.484;2023-04-24T08:43:38;16.20;99.90
12948;DHT22;6539;49.476;8.484;2023-04-24T08:46:05;16.40;99.90
12948;DHT22;6539;49.476;8.484;2023-04-24T08:48:36;16.50;99.90
12948;DHT22;6539;49.476;8.484;2023-04-24T08:51:05;16.70;99.90
12948;DHT22;6539;49.476;8.484;2023-04-24T08:53:33;16.00;99.90
12948;DHT22;6539;49.476;8.484;2023-04-24T08:56:02;15.50;99.90
12948;DHT22;6539;49.476;8.484;2023-04-24T08:58:29;15.20;99.90
12948;DHT22;6539;49.476;8.484;2023-04-24T09:00:57;15.10;99.90
12948;DHT22;6539;49.476;8.484;2023-04-24T09:03:26;15.20;99.90
12948;DHT22;6539;49.476;8.484;2023-04-24T09:05:53;15.00;99.90
12948;DHT22;6539;49.476;8.484;2023-04-24T09:08:25;14.70;99.90
12948;DHT22;6539;49.476;8.484;2023-04-24T09:10:54;14.60;99.90
12948;DHT22;6539;49.476;8.484;2023-04-24T09:13:20;14.50;99.90
12948;DHT22;6539;49.476;8.484;2023-04-24T09:15:46;14.20;99.90
12948;DHT22;6539;49.476;8.484;2023-04-24T09:18:12;14.20;99.90
12948;DHT22;6539;49.476;8.484;2023-04-24T09:21:06;14.20;99.90
12948;DHT22;6539;49.476;8.484;2023-04-24T09:23:34;14.30;99.90
12948;DHT22;6539;49.476;8.484;2023-04-24T09:26:03;14.20;99.90
12948;DHT22;6539;49.476;8.484;2023-04-24T09:28:39;14.10;99.90
12948;DHT22;6539;49.476;8.484;2023-04-24T09:31:12;14.10;99.90
12948;DHT22;6539;49.476;8.484;2023-04-24T09:34:00;14.20;99.90
12948;DHT22;6539;49.476;8.484;2023-04-24T09:36:37;14.60;99.90
12948;DHT22;6539;49.476;8.484;2023-04-24T09:39:12;14.50;99.90
12948;DHT22;6539;49.476;8.484;2023-04-24T09:41:55;14.50;99.90
12948;DHT22;6539;49.476;8.484;2023-04-24T09:44:26;14.60;99.90
12948;DHT22;6539;49.476;8.484;2023-04-24T09:47:01;14.60;99.90
12948;DHT22;6539;49.476;8.484;2023-04-24T09:49:30;14.50;99.90
12948;DHT22;6539;49.476;8.484;2023-04-24T09:52:10;14.50;99.90
12948;DHT22;6539;49.476;8.484;2023-04-24T09:54:52;14.40;99.90
12948;DHT22;6539;49.476;8.484;2023-04-24T09:57:19;14.30;99.90
12948;DHT22;6539;49.476;8.484;2023-04-24T09:59:46;14.80;99.90
12948;DHT22;6539;49.476;8.484;2023-04-24T10:02:18;14.60;99.90
12948;DHT22;6539;49.476;8.484;2023-04-24T10:04:55;14.90;99.90
12948;DHT22;6539;49.476;8.484;2023-04-24T10:07:28;15.10;99.90
12948;DHT22;6539;49.476;8.484;2023-04-24T10:09:56;14.90;99.90
12948;DHT22;6539;49.476;8.484;2023-04-24T10:12:23;14.90;99.90
12948;DHT22;6539;49.476;8.484;2023-04-24T10:14:50;14.80;99.90
12948;DHT22;6539;49.476;8.484;2023-04-24T10:17:19;14.70;99.90
12948;DHT22;6539;49.476;8.484;2023-04-24T10:19:47;14.50;99.90
12948;DHT22;6539;49.476;8.484;2023-04-24T10:22:15;14.50;99.90
12948;DHT22;6539;49.476;8.484;2023-04-24T10:24:47;14.30;99.90
12948;DHT22;6539;49.476;8.484;2023-04-24T10:27:17;14.30;99.90
12948;DHT22;6539;49.476;8.484;2023-04-24T10:29:47;14.40;99.90
12948;DHT22;6539;49.476;8.484;2023-04-24T10:32:19;15.00;99.90
12948;DHT22;6539;49.476;8.484;2023-04-24T10:34:44;15.40;99.90
12948;DHT22;6539;49.476;8.484;2023-04-24T10:37:10;15.90;99.90
12948;DHT22;6539;49.476;8.484;2023-04-24T10:39:36;16.20;99.90
12948;DHT22;6539;49.476;8.484;2023-04-24T10:42:16;16.20;99.90
12948;DHT22;6539;49.476;8.484;2023-04-24T10:44:42;16.60;99.90
12948;DHT22;6539;49.476;8.484;2023-04-24T10:47:16;16.80;99.90
12948;DHT22;6539;49.476;8.484;2023-04-24T10:49:42;16.50;99.90
12948;DHT22;6539;49.476;8.484;2023-04-24T10:52:14;16.60;99.90
12948;DHT22;6539;49.476;8.484;2023-04-24T10:59:47;16.50;99.90
12948;DHT22;6539;49.476;8.484;2023-04-24T11:02:17;16.60;99.90
12948;DHT22;6539;49.476;8.484;2023-04-24T11:04:45;16.50;99.90
12948;DHT22;6539;49.476;8.484;2023-04-24T11:07:11;16.70;99.90
12948;DHT22;6539;49.476;8.484;2023-04-24T11:09:38;16.30;99.90
12948;DHT22;6539;49.476;8.484;2023-04-24T11:12:11;16.40;99.90
12948;DHT22;6539;49.476;8.484;2023-04-24T11:17:34;16.20;99.90
12948;DHT22;6539;49.476;8.484;2023-04-24T11:20:10;16.10;99.90
12948;DHT22;6539;49.476;8.484;2023-04-24T11:22:39;16.50;99.90
12948;DHT22;6539;49.476;8.484;2023-04-24T11:25:06;16.80;99.90
12948;DHT22;6539;49.476;8.484;2023-04-24T11:27:43;16.50;99.90
12948;DHT22;6539;49.476;8.484;2023-04-24T11:30:10;16.60;99.90
12948;DHT22;6539;49.476;8.484;2023-04-24T11:32:42;16.50;99.90
12948;DHT22;6539;49.476;8.484;2023-04-24T11:35:20;16.10;99.90
12948;DHT22;6539;49.476;8.484;2023-04-24T11:37:54;16.30;99.90
12948;DHT22;6539;49.476;8.484;2023-04-24T11:40:23;16.00;99.90
12948;DHT22;6539;49.476;8.484;2023-04-24T11:42:51;16.10;99.90
12948;DHT22;6539;49.476;8.484;2023-04-24T11:45:47;16.00;99.90
12948;DHT22;6539;49.476;8.484;2023-04-24T11:48:20;16.00;99.90
12948;DHT22;6539;49.476;8.484;2023-04-24T11:50:48;15.90;99.90
12948;DHT22;6539;49.476;8.484;2023-04-24T11:53:19;15.90;99.90
12948;DHT22;6539;49.476;8.484;2023-04-24T11:55:46;15.60;99.90
12948;DHT22;6539;49.476;8.484;2023-04-24T11:58:12;15.50;99.90
12948;DHT22;6539;49.476;8.484;2023-04-24T12:00:40;15.30;99.90
12948;DHT22;6539;49.476;8.484;2023-04-24T12:03:11;15.30;99.90
12948;DHT22;6539;49.476;8.484;2023-04-24T12:05:38;15.10;99.90
12948;DHT22;6539;49.476;8.484;2023-04-24T12:08:05;15.10;99.90
12948;DHT22;6539;49.476;8.484;2023-04-24T12:10:32;15.30;99.90
12948;DHT22;6539;49.476;8.484;2023-04-24T12:13:00;15.20;99.90
12948;DHT22;6539;49.476;8.484;2023-04-24T12:15:28;15.30;99.90
12948;DHT22;6539;49.476;8.484;2023-04-24T12:17:55;15.60;99.90
12948;DHT22;6539;49.476;8.484;2023-04-24T12:20:30;16.00;99.90
12948;DHT22;6539;49.476;8.484;2023-04-24T12:23:01;15.90;99.90
12948;DHT22;6539;49.476;8.484;2023-04-24T12:25:33;15.90;99.90
12948;DHT22;6539;49.476;8.484;2023-04-24T12:30:35;15.90;99.90
12948;DHT22;6539;49.476;8.484;2023-04-24T12:33:08;16.00;99.90
12948;DHT22;6539;49.476;8.484;2023-04-24T12:35:36;15.60;99.90
12948;DHT22;6539;49.476;8.484;2023-04-24T12:40:34;15.60;99.90
12948;DHT22;6539;49.476;8.484;2023-04-24T12:43:01;15.80;99.90
12948;DHT22;6539;49.476;8.484;2023-04-24T12:45:38;15.70;99.90
12948;DHT22;6539;49.476;8.484;2023-04-24T12:48:06;15.70;99.90
12948;DHT22;6539;49.476;8.484;2023-04-24T12:50:34;15.70;99.90
12948;DHT22;6539;49.476;8.484;2023-04-24T12:53:02;15.80;99.90
12948;DHT22;6539;49.476;8.484;2023-04-24T12:55:28;15.70;99.90
12948;DHT22;6539;49.476;8.484;2023-04-24T12:57:56;15.60;99.90
12948;DHT22;6539;49.476;8.484;2023-04-24T13:00:22;15.50;99.90
12948;DHT22;6539;49.476;8.484;2023-04-24T13:02:52;15.50;99.90
12948;DHT22;6539;49.476;8.484;2023-04-24T13:05:18;15.60;99.90
12948;DHT22;6539;49.476;8.484;2023-04-24T13:07:44;15.60;99.90
12948;DHT22;6539;49.476;8.484;2023-04-24T13:10:12;15.70;99.90
12948;DHT22;6539;49.476;8.484;2023-04-24T13:12:38;15.70;99.90
12948;DHT22;6539;49.476;8.484;2023-04-24T13:15:06;15.60;99.90
12948;DHT22;6539;49.476;8.484;2023-04-24T13:17:38;15.60;99.90
12948;DHT22;6539;49.476;8.484;2023-04-24T13:20:04;15.60;99.90
12948;DHT22;6539;49.476;8.484;2023-04-24T13:22:39;15.80;99.90
12948;DHT22;6539;49.476;8.484;2023-04-24T13:25:05;15.80;99.90
12948;DHT22;6539;49.476;8.484;2023-04-24T13:27:38;16.00;99.90
12948;DHT22;6539;49.476;8.484;2023-04-24T13:30:07;16.20;99.90
12948;DHT22;6539;49.476;8.484;2023-04-24T13:32:33;16.40;99.90
12948;DHT22;6539;49.476;8.484;2023-04-24T13:35:00;16.50;99.90
12948;DHT22;6539;49.476;8.484;2023-04-24T13:37:28;16.70;99.90
12948;DHT22;6539;49.476;8.484;2023-04-24T13:39:54;16.70;99.90
12948;DHT22;6539;49.476;8.484;2023-04-24T13:42:25;16.60;99.90
12948;DHT22;6539;49.476;8.484;2023-04-24T13:44:51;16.70;99.90
12948;DHT22;6539;49.476;8.484;2023-04-24T13:47:17;16.60;99.90
12948;DHT22;6539;49.476;8.484;2023-04-24T13:49:45;16.60;99.90
12948;DHT22;6539;49.476;8.484;2023-04-24T13:52:11;16.50;99.90
12948;DHT22;6539;49.476;8.484;2023-04-24T13:54:40;16.40;99.90
12948;DHT22;6539;49.476;8.484;2023-04-24T13:57:07;16.30;99.90
12948;DHT22;6539;49.476;8.484;2023-04-24T13:59:35;16.30;99.90
12948;DHT22;6539;49.476;8.484;2023-04-24T14:02:04;16.20;99.90
12948;DHT22;6539;49.476;8.484;2023-04-24T14:04:32;16.10;99.90
12948;DHT22;6539;49.476;8.484;2023-04-24T14:06:59;15.70;99.90
12948;DHT22;6539;49.476;8.484;2023-04-24T14:09:25;15.90;99.90
12948;DHT22;6539;49.476;8.484;2023-04-24T14:11:52;15.90;99.90
12948;DHT22;6539;49.476;8.484;2023-04-24T14:14:20;15.90;99.90
12948;DHT22;6539;49.476;8.484;2023-04-24T14:16:46;15.90;99.90
12948;DHT22;6539;49.476;8.484;2023-04-24T14:19:12;15.90;99.90
12948;DHT22;6539;49.476;8.484;2023-04-24T14:21:37;15.90;99.90
12948;DHT22;6539;49.476;8.484;2023-04-24T14:24:05;15.60;99.90
12948;DHT22;6539;49.476;8.484;2023-04-24T14:26:31;15.60;99.90
12948;DHT22;6539;49.476;8.484;2023-04-24T14:28:57;15.60;99.90
12948;DHT22;6539;49.476;8.484;2023-04-24T14:31:26;15.60;99.90
12948;DHT22;6539;49.476;8.484;2023-04-24T14:33:52;15.70;99.90
12948;DHT22;6539;49.476;8.484;2023-04-24T14:38:45;15.10;99.90
12948;DHT22;6539;49.476;8.484;2023-04-24T14:41:18;15.20;99.90
12948;DHT22;6539;49.476;8.484;2023-04-24T14:43:44;15.20;99.90
12948;DHT22;6539;49.476;8.484;2023-04-24T14:46:14;15.20;99.90
12948;DHT22;6539;49.476;8.484;2023-04-24T14:48:43;15.50;99.90
12948;DHT22;6539;49.476;8.484;2023-04-24T14:51:08;15.40;99.90
12948;DHT22;6539;49.476;8.484;2023-04-24T14:53:36;15.60;99.90
12948;DHT22;6539;49.476;8.484;2023-04-24T14:56:02;15.80;99.90
12948;DHT22;6539;49.476;8.484;2023-04-24T14:58:30;15.80;99.90
12948;DHT22;6539;49.476;8.484;2023-04-24T15:00:59;15.80;99.90
12948;DHT22;6539;49.476;8.484;2023-04-24T15:03:25;15.50;99.90
12948;DHT22;6539;49.476;8.484;2023-04-24T15:05:54;15.30;99.90
12948;DHT22;6539;49.476;8.484;2023-04-24T15:08:20;15.20;99.90
12948;DHT22;6539;49.476;8.484;2023-04-24T15:10:46;15.20;99.90
12948;DHT22;6539;49.476;8.484;2023-04-24T15:13:13;15.20;99.90
12948;DHT22;6539;49.476;8.484;2023-04-24T15:15:39;15.20;99.90
12948;DHT22;6539;49.476;8.484;2023-04-24T15:18:10;15.10;99.90
12948;DHT22;6539;49.476;8.484;2023-04-24T15:20:37;14.90;99.90
12948;DHT22;6539;49.476;8.484;2023-04-24T15:23:05;15.00;99.90
12948;DHT22;6539;49.476;8.484;2023-04-24T15:25:32;15.00;99.90
12948;DHT22;6539;49.476;8.484;2023-04-24T15:28:06;14.80;99.90
12948;DHT22;6539;49.476;8.484;2023-04-24T15:30:32;14.90;99.90
12948;DHT22;6539;49.476;8.484;2023-04-24T15:32:59;15.00;99.90
12948;DHT22;6539;49.476;8.484;2023-04-24T15:35:27;14.90;99.90
12948;DHT22;6539;49.476;8.484;2023-04-24T15:37:52;15.00;99.90
12948;DHT22;6539;49.476;8.484;2023-04-24T15:40:18;15.10;99.90
12948;DHT22;6539;49.476;8.484;2023-04-24T15:45:14;15.10;99.90
12948;DHT22;6539;49.476;8.484;2023-04-24T15:47:44;15.10;99.90
12948;DHT22;6539;49.476;8.484;2023-04-24T15:50:12;15.00;99.90
12948;DHT22;6539;49.476;8.484;2023-04-24T15:52:43;15.10;99.90
12948;DHT22;6539;49.476;8.484;2023-04-24T15:55:09;15.10;99.90
12948;DHT22;6539;49.476;8.484;2023-04-24T15:57:39;15.00;99.90
12948;DHT22;6539;49.476;8.484;2023-04-24T16:00:10;15.10;99.90
12948;DHT22;6539;49.476;8.484;2023-04-24T16:02:36;15.10;99.90
12948;DHT22;6539;49.476;8.484;2023-04-24T16:05:04;15.10;99.90
12948;DHT22;6539;49.476;8.484;2023-04-24T16:07:32;15.20;99.90
12948;DHT22;6539;49.476;8.484;2023-04-24T16:09:58;15.10;99.90
12948;DHT22;6539;49.476;8.484;2023-04-24T16:12:24;15.20;99.90
12948;DHT22;6539;49.476;8.484;2023-04-24T16:14:52;15.20;99.90
12948;DHT22;6539;49.476;8.484;2023-04-24T16:17:21;15.20;99.90
12948;DHT22;6539;49.476;8.484;2023-04-24T16:19:47;15.20;99.90